sensor_id;sensor_type;location;lat;lon;timestamp;pressure;altitude;pressure_sealevel;temperature;humidity
46642;BME280;32370;41.864;-88.124;2022-08-21T00:00:55;98656.21;;;23.19;79.25
46642;BME280;32370;41.864;-88.124;2022-08-21T00:03:23;98655.69;;;23.07;79.69
46642;BME280;32370;41.864;-88.124;2022-08-21T00:05:51;98653.55;;;23.11;79.95
46642;BME280;32370;41.864;-88.124;2022-08-21T00:08:20;98656.02;;;23.22;79.89
46642;BME280;32370;41.864;-88.124;2022-08-21T00:10:49;98662.48;;;23.05;80.65
46642;BME280;32370;41.864;-88.124;2022-08-21T00:13:19;98669.52;;;23.21;80.22
46642;BME280;32370;41.864;-88.124;2022-08-21T00:15:48;98671.27;;;23.11;80.81
46642;BME280;32370;41.864;-88.124;2022-08-21T00:18:17;98671.20;;;22.91;82.04
46642;BME280;32370;41.864;-88.124;2022-08-21T00:20:46;98675.28;;;22.81;82.57
46642;BME280;32370;41.864;-88.124;2022-08-21T00:23:14;98679.55;;;22.80;82.15
46642;BME280;32370;41.864;-88.124;2022-08-21T00:25:43;98676.98;;;22.80;81.91
46642;BME280;32370;41.864;-88.124;2022-08-21T00:28:12;98676.64;;;23.06;81.69
46642;BME280;32370;41.864;-88.124;2022-08-21T00:30:41;98674.84;;;23.50;80.59
46642;BME280;32370;41.864;-88.124;2022-08-21T00:33:09;98673.18;;;23.22;81.83
46642;BME280;32370;41.864;-88.124;2022-08-21T00:35:40;98678.19;;;22.88;81.05
46642;BME280;32370;41.864;-88.124;2022-08-21T00:38:08;98678.68;;;23.01;82.01
46642;BME280;32370;41.864;-88.124;2022-08-21T00:40:40;98683.11;;;22.81;82.57
46642;BME280;32370;41.864;-88.124;2022-08-21T00:43:11;98688.54;;;23.13;82.47
46642;BME280;32370;41.864;-88.124;2022-08-21T00:45:40;98694.46;;;22.77;83.21
46642;BME280;32370;41.864;-88.124;2022-08-21T00:48:08;98694.54;;;22.63;84.26
46642;BME280;32370;41.864;-88.124;2022-08-21T00:50:42;98694.64;;;22.42;85.71
46642;BME280;32370;41.864;-88.124;2022-08-21T00:53:10;98698.20;;;22.33;85.24
46642;BME280;32370;41.864;-88.124;2022-08-21T00:55:40;98702.07;;;22.24;86.12
46642;BME280;32370;41.864;-88.124;2022-08-21T00:58:11;98698.93;;;22.47;85.06
46642;BME280;32370;41.864;-88.124;2022-08-21T01:00:42;98703.17;;;22.42;84.99
46642;BME280;32370;41.864;-88.124;2022-08-21T01:03:14;98707.32;;;22.41;85.07
46642;BME280;32370;41.864;-88.124;2022-08-21T01:05:43;98709.89;;;22.41;85.02
46642;BME280;32370;41.864;-88.124;2022-08-21T01:08:13;98704.44;;;22.38;84.57
46642;BME280;32370;41.864;-88.124;2022-08-21T01:10:43;98701.12;;;22.62;84.13
46642;BME280;32370;41.864;-88.124;2022-08-21T01:13:12;98696.80;;;22.64;84.10
46642;BME280;32370;41.864;-88.124;2022-08-21T01:15:45;98692.71;;;22.63;84.04
46642;BME280;32370;41.864;-88.124;2022-08-21T01:18:14;98686.92;;;22.52;84.38
46642;BME280;32370;41.864;-88.124;2022-08-21T01:20:45;98691.46;;;22.14;86.31
46642;BME280;32370;41.864;-88.124;2022-08-21T01:23:13;98687.72;;;21.89;87.37
46642;BME280;32370;41.864;-88.124;2022-08-21T01:25:41;98686.56;;;22.04;86.90
46642;BME280;32370;41.864;-88.124;2022-08-21T01:28:13;98684.49;;;22.18;86.22
46642;BME280;32370;41.864;-88.124;2022-08-21T01:30:43;98677.06;;;22.35;85.28
46642;BME280;32370;41.864;-88.124;2022-08-21T01:33:11;98682.00;;;21.95;87.18
46642;BME280;32370;41.864;-88.124;2022-08-21T01:35:39;98680.40;;;21.60;89.79
46642;BME280;32370;41.864;-88.124;2022-08-21T01:38:07;98678.98;;;21.40;90.60
46642;BME280;32370;41.864;-88.124;2022-08-21T01:40:35;98675.43;;;21.34;90.79
46642;BME280;32370;41.864;-88.124;2022-08-21T01:43:02;98677.81;;;21.53;89.47
46642;BME280;32370;41.864;-88.124;2022-08-21T01:45:30;98676.49;;;21.66;88.91
46642;BME280;32370;41.864;-88.124;2022-08-21T01:47:58;98676.01;;;22.05;87.85
46642;BME280;32370;41.864;-88.124;2022-08-21T01:50:26;98679.99;;;21.89;88.54
46642;BME280;32370;41.864;-88.124;2022-08-21T01:52:54;98689.18;;;21.62;89.65
46642;BME280;32370;41.864;-88.124;2022-08-21T01:55:22;98696.75;;;21.52;90.17
46642;BME280;32370;41.864;-88.124;2022-08-21T01:57:50;98696.74;;;21.51;90.12
46642;BME280;32370;41.864;-88.124;2022-08-21T02:00:21;98701.86;;;21.24;90.14
46642;BME280;32370;41.864;-88.124;2022-08-21T02:02:50;98706.12;;;21.17;90.68
46642;BME280;32370;41.864;-88.124;2022-08-21T02:05:18;98705.30;;;21.04;93.25
46642;BME280;32370;41.864;-88.124;2022-08-21T02:07:50;98711.79;;;20.44;96.77
46642;BME280;32370;41.864;-88.124;2022-08-21T02:10:22;98712.81;;;20.29;97.60
46642;BME280;32370;41.864;-88.124;2022-08-21T02:12:49;98716.13;;;20.34;98.25
46642;BME280;32370;41.864;-88.124;2022-08-21T02:15:17;98719.87;;;20.82;97.76
46642;BME280;32370;41.864;-88.124;2022-08-21T02:17:49;98719.81;;;20.86;95.95
46642;BME280;32370;41.864;-88.124;2022-08-21T02:20:20;98723.30;;;21.45;93.96
46642;BME280;32370;41.864;-88.124;2022-08-21T02:22:49;98726.53;;;21.70;92.12
46642;BME280;32370;41.864;-88.124;2022-08-21T02:25:17;98726.36;;;21.64;91.88
46642;BME280;32370;41.864;-88.124;2022-08-21T02:27:47;98724.79;;;21.05;92.22
46642;BME280;32370;41.864;-88.124;2022-08-21T02:30:18;98725.51;;;21.44;92.56
46642;BME280;32370;41.864;-88.124;2022-08-21T02:32:46;98727.61;;;21.45;92.62
46642;BME280;32370;41.864;-88.124;2022-08-21T02:35:13;98730.72;;;21.48;92.61
46642;BME280;32370;41.864;-88.124;2022-08-21T02:37:47;98730.36;;;21.47;92.61
46642;BME280;32370;41.864;-88.124;2022-08-21T02:40:17;98727.84;;;21.42;91.52
46642;BME280;32370;41.864;-88.124;2022-08-21T02:42:45;98725.47;;;21.28;91.51
46642;BME280;32370;41.864;-88.124;2022-08-21T02:45:13;98719.85;;;21.58;90.28
46642;BME280;32370;41.864;-88.124;2022-08-21T02:47:54;98710.28;;;21.64;89.53
46642;BME280;32370;41.864;-88.124;2022-08-21T02:50:24;98712.03;;;21.88;89.03
46642;BME280;32370;41.864;-88.124;2022-08-21T02:52:52;98711.42;;;21.59;89.78
46642;BME280;32370;41.864;-88.124;2022-08-21T02:55:21;98717.29;;;21.55;90.20
46642;BME280;32370;41.864;-88.124;2022-08-21T02:57:50;98716.26;;;21.25;90.94
46642;BME280;32370;41.864;-88.124;2022-08-21T03:00:18;98715.95;;;21.15;91.28
46642;BME280;32370;41.864;-88.124;2022-08-21T03:02:47;98713.93;;;20.50;93.31
46642;BME280;32370;41.864;-88.124;2022-08-21T03:05:17;98715.49;;;20.57;93.86
46642;BME280;32370;41.864;-88.124;2022-08-21T03:07:48;98724.70;;;20.66;93.64
46642;BME280;32370;41.864;-88.124;2022-08-21T03:10:16;98725.35;;;20.70;93.27
46642;BME280;32370;41.864;-88.124;2022-08-21T03:12:44;98724.03;;;20.69;93.09
46642;BME280;32370;41.864;-88.124;2022-08-21T03:15:15;98722.20;;;20.64;93.18
46642;BME280;32370;41.864;-88.124;2022-08-21T03:17:43;98723.29;;;20.60;93.11
46642;BME280;32370;41.864;-88.124;2022-08-21T03:20:11;98723.01;;;20.41;94.28
46642;BME280;32370;41.864;-88.124;2022-08-21T03:22:39;98720.71;;;20.33;93.08
46642;BME280;32370;41.864;-88.124;2022-08-21T03:25:08;98722.75;;;20.63;91.93
46642;BME280;32370;41.864;-88.124;2022-08-21T03:27:36;98720.80;;;20.45;91.90
46642;BME280;32370;41.864;-88.124;2022-08-21T03:30:06;98719.67;;;20.20;93.40
46642;BME280;32370;41.864;-88.124;2022-08-21T03:32:35;98722.37;;;19.99;94.49
46642;BME280;32370;41.864;-88.124;2022-08-21T03:35:04;98723.01;;;19.85;95.47
46642;BME280;32370;41.864;-88.124;2022-08-21T03:37:31;98726.36;;;19.61;96.65
46642;BME280;32370;41.864;-88.124;2022-08-21T03:39:59;98730.51;;;19.94;95.79
46642;BME280;32370;41.864;-88.124;2022-08-21T03:42:28;98734.79;;;19.87;94.60
46642;BME280;32370;41.864;-88.124;2022-08-21T03:44:55;98734.03;;;20.29;94.02
46642;BME280;32370;41.864;-88.124;2022-08-21T03:47:23;98730.98;;;20.21;94.07
46642;BME280;32370;41.864;-88.124;2022-08-21T03:49:52;98730.94;;;19.83;96.70
46642;BME280;32370;41.864;-88.124;2022-08-21T03:52:19;98733.66;;;19.41;97.75
46642;BME280;32370;41.864;-88.124;2022-08-21T03:54:47;98736.23;;;19.09;98.43
46642;BME280;32370;41.864;-88.124;2022-08-21T03:57:15;98736.53;;;19.58;97.09
46642;BME280;32370;41.864;-88.124;2022-08-21T03:59:43;98736.98;;;19.82;95.18
46642;BME280;32370;41.864;-88.124;2022-08-21T04:02:14;98737.38;;;20.29;93.58
46642;BME280;32370;41.864;-88.124;2022-08-21T04:04:44;98734.68;;;20.52;91.93
46642;BME280;32370;41.864;-88.124;2022-08-21T04:07:12;98734.10;;;20.53;91.55
46642;BME280;32370;41.864;-88.124;2022-08-21T04:09:39;98734.89;;;20.28;91.93
46642;BME280;32370;41.864;-88.124;2022-08-21T04:12:08;98730.29;;;20.01;92.84
46642;BME280;32370;41.864;-88.124;2022-08-21T04:14:36;98724.09;;;19.96;92.88
46642;BME280;32370;41.864;-88.124;2022-08-21T04:17:04;98718.82;;;19.33;95.49
46642;BME280;32370;41.864;-88.124;2022-08-21T04:19:31;98720.44;;;19.09;97.74
46642;BME280;32370;41.864;-88.124;2022-08-21T04:21:59;98723.39;;;18.92;98.93
46642;BME280;32370;41.864;-88.124;2022-08-21T04:24:26;98729.29;;;19.48;98.79
46642;BME280;32370;41.864;-88.124;2022-08-21T04:26:54;98728.53;;;19.33;96.83
46642;BME280;32370;41.864;-88.124;2022-08-21T04:29:22;98728.32;;;19.60;95.83
46642;BME280;32370;41.864;-88.124;2022-08-21T04:31:50;98728.75;;;19.26;95.53
46642;BME280;32370;41.864;-88.124;2022-08-21T04:34:18;98727.92;;;19.46;95.79
46642;BME280;32370;41.864;-88.124;2022-08-21T04:36:46;98727.85;;;18.93;95.64
46642;BME280;32370;41.864;-88.124;2022-08-21T04:39:14;98725.88;;;19.11;95.71
46642;BME280;32370;41.864;-88.124;2022-08-21T04:41:41;98727.42;;;18.89;97.84
46642;BME280;32370;41.864;-88.124;2022-08-21T04:44:09;98728.88;;;18.74;99.27
46642;BME280;32370;41.864;-88.124;2022-08-21T04:46:37;98722.32;;;18.63;99.83
46642;BME280;32370;41.864;-88.124;2022-08-21T04:49:05;98723.37;;;18.92;98.39
46642;BME280;32370;41.864;-88.124;2022-08-21T04:51:34;98722.90;;;19.71;96.01
46642;BME280;32370;41.864;-88.124;2022-08-21T04:54:08;98723.42;;;19.85;94.75
46642;BME280;32370;41.864;-88.124;2022-08-21T04:56:41;98724.29;;;19.72;94.49
46642;BME280;32370;41.864;-88.124;2022-08-21T04:59:14;98720.64;;;19.08;94.87
46642;BME280;32370;41.864;-88.124;2022-08-21T05:01:44;98721.78;;;19.18;96.56
46642;BME280;32370;41.864;-88.124;2022-08-21T05:04:15;98719.21;;;18.62;99.21
46642;BME280;32370;41.864;-88.124;2022-08-21T05:06:45;98718.02;;;18.63;100.00
46642;BME280;32370;41.864;-88.124;2022-08-21T05:09:16;98710.49;;;18.26;100.00
46642;BME280;32370;41.864;-88.124;2022-08-21T05:11:45;98707.58;;;18.35;100.00
46642;BME280;32370;41.864;-88.124;2022-08-21T05:14:14;98703.89;;;18.35;100.00
46642;BME280;32370;41.864;-88.124;2022-08-21T05:16:42;98702.75;;;18.23;100.00
46642;BME280;32370;41.864;-88.124;2022-08-21T05:19:11;98703.33;;;18.25;100.00
46642;BME280;32370;41.864;-88.124;2022-08-21T05:21:41;98703.79;;;18.65;100.00
46642;BME280;32370;41.864;-88.124;2022-08-21T05:24:09;98700.91;;;18.81;100.00
46642;BME280;32370;41.864;-88.124;2022-08-21T05:26:38;98700.59;;;18.78;100.00
46642;BME280;32370;41.864;-88.124;2022-08-21T05:29:07;98700.96;;;19.01;100.00
46642;BME280;32370;41.864;-88.124;2022-08-21T05:31:35;98699.96;;;18.81;99.33
46642;BME280;32370;41.864;-88.124;2022-08-21T05:34:02;98702.12;;;18.81;98.86
46642;BME280;32370;41.864;-88.124;2022-08-21T05:36:30;98707.01;;;18.97;98.11
46642;BME280;32370;41.864;-88.124;2022-08-21T05:38:59;98708.07;;;18.99;97.75
46642;BME280;32370;41.864;-88.124;2022-08-21T05:41:26;98705.51;;;18.94;97.71
46642;BME280;32370;41.864;-88.124;2022-08-21T05:43:54;98703.43;;;19.15;97.54
46642;BME280;32370;41.864;-88.124;2022-08-21T05:46:22;98704.45;;;19.16;96.43
46642;BME280;32370;41.864;-88.124;2022-08-21T05:48:50;98704.89;;;19.24;95.43
46642;BME280;32370;41.864;-88.124;2022-08-21T05:51:17;98705.93;;;19.31;94.61
46642;BME280;32370;41.864;-88.124;2022-08-21T05:53:45;98704.28;;;19.30;95.19
46642;BME280;32370;41.864;-88.124;2022-08-21T05:56:13;98702.29;;;18.84;96.20
46642;BME280;32370;41.864;-88.124;2022-08-21T05:58:42;98696.50;;;18.72;98.72
46642;BME280;32370;41.864;-88.124;2022-08-21T06:01:10;98695.69;;;18.63;99.45
46642;BME280;32370;41.864;-88.124;2022-08-21T06:03:39;98696.21;;;18.68;99.29
46642;BME280;32370;41.864;-88.124;2022-08-21T06:06:07;98699.33;;;18.70;98.98
46642;BME280;32370;41.864;-88.124;2022-08-21T06:08:36;98697.62;;;18.57;98.18
46642;BME280;32370;41.864;-88.124;2022-08-21T06:11:04;98695.91;;;18.78;97.85
46642;BME280;32370;41.864;-88.124;2022-08-21T06:13:33;98701.95;;;18.74;96.99
46642;BME280;32370;41.864;-88.124;2022-08-21T06:16:05;98710.30;;;19.01;94.97
46642;BME280;32370;41.864;-88.124;2022-08-21T06:18:34;98708.90;;;18.86;95.44
46642;BME280;32370;41.864;-88.124;2022-08-21T06:21:02;98707.49;;;18.35;96.72
46642;BME280;32370;41.864;-88.124;2022-08-21T06:23:30;98705.83;;;18.53;97.24
46642;BME280;32370;41.864;-88.124;2022-08-21T06:25:58;98704.37;;;18.68;96.74
46642;BME280;32370;41.864;-88.124;2022-08-21T06:28:27;98700.90;;;18.88;95.70
46642;BME280;32370;41.864;-88.124;2022-08-21T06:30:54;98698.27;;;18.75;96.05
46642;BME280;32370;41.864;-88.124;2022-08-21T06:33:22;98693.87;;;18.76;96.24
46642;BME280;32370;41.864;-88.124;2022-08-21T06:35:50;98696.94;;;18.46;97.72
46642;BME280;32370;41.864;-88.124;2022-08-21T06:38:18;98693.60;;;18.11;99.37
46642;BME280;32370;41.864;-88.124;2022-08-21T06:40:52;98693.65;;;18.07;99.49
46642;BME280;32370;41.864;-88.124;2022-08-21T06:43:20;98693.81;;;18.17;98.55
46642;BME280;32370;41.864;-88.124;2022-08-21T06:45:48;98697.71;;;18.30;97.84
46642;BME280;32370;41.864;-88.124;2022-08-21T06:48:15;98700.74;;;18.97;95.73
46642;BME280;32370;41.864;-88.124;2022-08-21T06:50:43;98699.83;;;19.12;94.68
46642;BME280;32370;41.864;-88.124;2022-08-21T06:53:13;98698.16;;;19.09;95.85
46642;BME280;32370;41.864;-88.124;2022-08-21T06:55:41;98695.83;;;18.19;97.95
46642;BME280;32370;41.864;-88.124;2022-08-21T06:58:11;98696.09;;;18.30;97.54
46642;BME280;32370;41.864;-88.124;2022-08-21T07:00:41;98698.48;;;18.43;96.78
46642;BME280;32370;41.864;-88.124;2022-08-21T07:03:17;98699.72;;;18.62;96.12
46642;BME280;32370;41.864;-88.124;2022-08-21T07:05:46;98699.51;;;18.71;95.56
46642;BME280;32370;41.864;-88.124;2022-08-21T07:08:13;98704.38;;;18.59;95.91
46642;BME280;32370;41.864;-88.124;2022-08-21T07:10:41;98700.16;;;18.55;96.54
46642;BME280;32370;41.864;-88.124;2022-08-21T07:13:10;98699.41;;;18.88;96.20
46642;BME280;32370;41.864;-88.124;2022-08-21T07:15:37;98696.89;;;18.68;96.62
46642;BME280;32370;41.864;-88.124;2022-08-21T07:18:06;98696.80;;;18.34;97.13
46642;BME280;32370;41.864;-88.124;2022-08-21T07:20:34;98701.15;;;18.40;97.07
46642;BME280;32370;41.864;-88.124;2022-08-21T07:23:04;98699.61;;;18.56;96.31
46642;BME280;32370;41.864;-88.124;2022-08-21T07:25:32;98694.17;;;18.25;97.39
46642;BME280;32370;41.864;-88.124;2022-08-21T07:28:01;98689.69;;;18.00;98.68
46642;BME280;32370;41.864;-88.124;2022-08-21T07:30:29;98684.71;;;17.86;99.85
46642;BME280;32370;41.864;-88.124;2022-08-21T07:32:57;98688.59;;;17.73;100.00
46642;BME280;32370;41.864;-88.124;2022-08-21T07:35:25;98692.95;;;17.58;100.00
46642;BME280;32370;41.864;-88.124;2022-08-21T07:37:53;98696.65;;;17.78;100.00
46642;BME280;32370;41.864;-88.124;2022-08-21T07:40:21;98691.51;;;18.15;100.00
46642;BME280;32370;41.864;-88.124;2022-08-21T07:42:50;98688.33;;;18.00;99.30
46642;BME280;32370;41.864;-88.124;2022-08-21T07:45:19;98684.40;;;18.54;98.67
46642;BME280;32370;41.864;-88.124;2022-08-21T07:47:48;98682.28;;;17.95;98.70
46642;BME280;32370;41.864;-88.124;2022-08-21T07:50:17;98680.95;;;17.99;98.49
46642;BME280;32370;41.864;-88.124;2022-08-21T07:52:46;98678.28;;;18.26;98.08
46642;BME280;32370;41.864;-88.124;2022-08-21T07:55:16;98670.93;;;17.70;99.67
46642;BME280;32370;41.864;-88.124;2022-08-21T07:57:45;98672.83;;;17.62;100.00
46642;BME280;32370;41.864;-88.124;2022-08-21T08:00:15;98677.72;;;17.95;99.10
46642;BME280;32370;41.864;-88.124;2022-08-21T08:02:46;98683.13;;;17.95;98.11
46642;BME280;32370;41.864;-88.124;2022-08-21T08:05:16;98685.72;;;17.64;99.72
46642;BME280;32370;41.864;-88.124;2022-08-21T08:07:44;98688.45;;;18.08;99.93
46642;BME280;32370;41.864;-88.124;2022-08-21T08:10:12;98687.76;;;17.77;98.83
46642;BME280;32370;41.864;-88.124;2022-08-21T08:12:41;98688.26;;;18.06;97.06
46642;BME280;32370;41.864;-88.124;2022-08-21T08:15:13;98685.95;;;17.67;98.03
46642;BME280;32370;41.864;-88.124;2022-08-21T08:17:42;98682.69;;;17.98;99.41
46642;BME280;32370;41.864;-88.124;2022-08-21T08:20:11;98681.84;;;17.50;100.00
46642;BME280;32370;41.864;-88.124;2022-08-21T08:22:40;98688.67;;;17.38;100.00
46642;BME280;32370;41.864;-88.124;2022-08-21T08:25:11;98694.68;;;17.57;100.00
46642;BME280;32370;41.864;-88.124;2022-08-21T08:27:40;98699.08;;;17.36;99.77
46642;BME280;32370;41.864;-88.124;2022-08-21T08:30:11;98698.44;;;17.63;99.84
46642;BME280;32370;41.864;-88.124;2022-08-21T08:32:40;98697.13;;;17.82;98.25
46642;BME280;32370;41.864;-88.124;2022-08-21T08:35:09;98692.94;;;18.14;97.06
46642;BME280;32370;41.864;-88.124;2022-08-21T08:37:38;98691.58;;;17.66;98.04
46642;BME280;32370;41.864;-88.124;2022-08-21T08:40:09;98691.73;;;18.05;99.06
46642;BME280;32370;41.864;-88.124;2022-08-21T08:42:38;98692.01;;;18.06;98.61
46642;BME280;32370;41.864;-88.124;2022-08-21T08:45:08;98688.64;;;18.16;97.88
46642;BME280;32370;41.864;-88.124;2022-08-21T08:47:39;98688.53;;;18.43;97.77
46642;BME280;32370;41.864;-88.124;2022-08-21T08:50:11;98687.00;;;18.19;97.70
46642;BME280;32370;41.864;-88.124;2022-08-21T08:52:45;98688.64;;;17.71;99.26
46642;BME280;32370;41.864;-88.124;2022-08-21T08:55:18;98687.61;;;17.76;100.00
46642;BME280;32370;41.864;-88.124;2022-08-21T08:57:50;98693.90;;;18.07;100.00
46642;BME280;32370;41.864;-88.124;2022-08-21T09:00:21;98693.04;;;17.82;100.00
46642;BME280;32370;41.864;-88.124;2022-08-21T09:02:51;98694.52;;;17.77;100.00
46642;BME280;32370;41.864;-88.124;2022-08-21T09:05:23;98692.39;;;17.93;100.00
46642;BME280;32370;41.864;-88.124;2022-08-21T09:08:06;98693.55;;;17.90;100.00
46642;BME280;32370;41.864;-88.124;2022-08-21T09:10:45;98695.12;;;18.22;99.51
46642;BME280;32370;41.864;-88.124;2022-08-21T09:13:21;98691.53;;;18.09;99.85
46642;BME280;32370;41.864;-88.124;2022-08-21T09:15:56;98688.82;;;18.07;100.00
46642;BME280;32370;41.864;-88.124;2022-08-21T09:18:36;98690.92;;;18.15;100.00
46642;BME280;32370;41.864;-88.124;2022-08-21T09:21:16;98691.12;;;18.19;99.80
46642;BME280;32370;41.864;-88.124;2022-08-21T09:24:01;98689.64;;;18.10;100.00
46642;BME280;32370;41.864;-88.124;2022-08-21T09:26:34;98687.97;;;17.97;100.00
46642;BME280;32370;41.864;-88.124;2022-08-21T09:29:06;98683.52;;;17.86;100.00
46642;BME280;32370;41.864;-88.124;2022-08-21T09:31:36;98681.19;;;17.96;100.00
46642;BME280;32370;41.864;-88.124;2022-08-21T09:34:06;98682.57;;;18.11;100.00
46642;BME280;32370;41.864;-88.124;2022-08-21T09:36:38;98685.53;;;18.13;100.00
46642;BME280;32370;41.864;-88.124;2022-08-21T09:39:08;98688.68;;;18.15;100.00
46642;BME280;32370;41.864;-88.124;2022-08-21T09:41:37;98688.26;;;18.23;100.00
46642;BME280;32370;41.864;-88.124;2022-08-21T09:44:07;98683.15;;;18.19;100.00
46642;BME280;32370;41.864;-88.124;2022-08-21T09:46:35;98685.76;;;18.07;100.00
46642;BME280;32370;41.864;-88.124;2022-08-21T09:49:04;98684.85;;;17.81;100.00
46642;BME280;32370;41.864;-88.124;2022-08-21T09:51:35;98688.79;;;17.88;100.00
46642;BME280;32370;41.864;-88.124;2022-08-21T09:54:15;98695.15;;;17.82;100.00
46642;BME280;32370;41.864;-88.124;2022-08-21T09:56:55;98696.52;;;17.81;100.00
46642;BME280;32370;41.864;-88.124;2022-08-21T09:59:28;98698.77;;;17.94;100.00
46642;BME280;32370;41.864;-88.124;2022-08-21T10:01:57;98704.43;;;17.89;100.00
46642;BME280;32370;41.864;-88.124;2022-08-21T10:04:30;98702.39;;;17.49;100.00
46642;BME280;32370;41.864;-88.124;2022-08-21T10:07:07;98701.87;;;17.86;100.00
46642;BME280;32370;41.864;-88.124;2022-08-21T10:09:36;98700.58;;;17.77;100.00
46642;BME280;32370;41.864;-88.124;2022-08-21T10:12:13;98701.47;;;17.68;100.00
46642;BME280;32370;41.864;-88.124;2022-08-21T10:14:50;98701.24;;;18.25;100.00
46642;BME280;32370;41.864;-88.124;2022-08-21T10:17:27;98705.58;;;18.87;100.00
46642;BME280;32370;41.864;-88.124;2022-08-21T10:20:04;98705.69;;;18.87;100.00
46642;BME280;32370;41.864;-88.124;2022-08-21T10:22:40;98704.46;;;18.55;100.00
46642;BME280;32370;41.864;-88.124;2022-08-21T10:25:19;98702.23;;;18.33;100.00
46642;BME280;32370;41.864;-88.124;2022-08-21T10:27:56;98706.78;;;18.10;100.00
46642;BME280;32370;41.864;-88.124;2022-08-21T10:30:37;98702.39;;;18.67;100.00
46642;BME280;32370;41.864;-88.124;2022-08-21T10:33:18;98704.17;;;18.37;100.00
46642;BME280;32370;41.864;-88.124;2022-08-21T10:35:53;98703.71;;;18.80;100.00
46642;BME280;32370;41.864;-88.124;2022-08-21T10:38:39;98707.96;;;18.29;100.00
46642;BME280;32370;41.864;-88.124;2022-08-21T10:41:15;98706.49;;;18.14;100.00
46642;BME280;32370;41.864;-88.124;2022-08-21T10:43:52;98711.42;;;18.31;100.00
46642;BME280;32370;41.864;-88.124;2022-08-21T10:46:37;98713.57;;;17.93;100.00
46642;BME280;32370;41.864;-88.124;2022-08-21T10:49:19;98719.20;;;17.96;100.00
46642;BME280;32370;41.864;-88.124;2022-08-21T10:52:02;98727.64;;;17.70;100.00
46642;BME280;32370;41.864;-88.124;2022-08-21T10:54:39;98725.13;;;17.59;100.00
46642;BME280;32370;41.864;-88.124;2022-08-21T10:57:16;98725.69;;;17.47;100.00
46642;BME280;32370;41.864;-88.124;2022-08-21T10:59:52;98725.00;;;17.76;100.00
46642;BME280;32370;41.864;-88.124;2022-08-21T11:02:29;98723.05;;;17.85;100.00
46642;BME280;32370;41.864;-88.124;2022-08-21T11:05:04;98724.64;;;17.84;100.00
46642;BME280;32370;41.864;-88.124;2022-08-21T11:07:36;98730.30;;;17.90;100.00
46642;BME280;32370;41.864;-88.124;2022-08-21T11:10:10;98733.02;;;18.24;100.00
46642;BME280;32370;41.864;-88.124;2022-08-21T11:12:42;98740.62;;;18.37;100.00
46642;BME280;32370;41.864;-88.124;2022-08-21T11:15:23;98738.00;;;18.36;100.00
46642;BME280;32370;41.864;-88.124;2022-08-21T11:18:00;98738.17;;;18.51;100.00
46642;BME280;32370;41.864;-88.124;2022-08-21T11:20:34;98736.99;;;18.75;100.00
46642;BME280;32370;41.864;-88.124;2022-08-21T11:23:13;98739.18;;;18.37;100.00
46642;BME280;32370;41.864;-88.124;2022-08-21T11:25:45;98740.68;;;18.54;100.00
46642;BME280;32370;41.864;-88.124;2022-08-21T11:28:20;98740.52;;;18.35;100.00
46642;BME280;32370;41.864;-88.124;2022-08-21T11:30:59;98743.03;;;18.36;100.00
46642;BME280;32370;41.864;-88.124;2022-08-21T11:33:43;98747.99;;;18.22;100.00
46642;BME280;32370;41.864;-88.124;2022-08-21T11:36:20;98750.53;;;18.43;100.00
46642;BME280;32370;41.864;-88.124;2022-08-21T11:38:55;98751.04;;;18.15;100.00
46642;BME280;32370;41.864;-88.124;2022-08-21T11:41:29;98752.62;;;17.79;100.00
46642;BME280;32370;41.864;-88.124;2022-08-21T11:44:06;98759.80;;;17.97;100.00
46642;BME280;32370;41.864;-88.124;2022-08-21T11:46:41;98760.92;;;18.96;100.00
46642;BME280;32370;41.864;-88.124;2022-08-21T11:49:33;98768.70;;;18.32;100.00
46642;BME280;32370;41.864;-88.124;2022-08-21T11:52:13;98770.55;;;19.34;100.00
46642;BME280;32370;41.864;-88.124;2022-08-21T11:54:47;98772.46;;;19.59;100.00
46642;BME280;32370;41.864;-88.124;2022-08-21T11:57:21;98778.11;;;19.93;100.00
46642;BME280;32370;41.864;-88.124;2022-08-21T11:59:53;98781.85;;;19.41;100.00
46642;BME280;32370;41.864;-88.124;2022-08-21T12:02:29;98782.03;;;19.62;100.00
46642;BME280;32370;41.864;-88.124;2022-08-21T12:05:02;98782.25;;;19.72;100.00
46642;BME280;32370;41.864;-88.124;2022-08-21T12:07:35;98785.39;;;19.84;100.00
46642;BME280;32370;41.864;-88.124;2022-08-21T12:10:07;98784.21;;;19.12;100.00
46642;BME280;32370;41.864;-88.124;2022-08-21T12:12:37;98786.11;;;18.83;100.00
46642;BME280;32370;41.864;-88.124;2022-08-21T12:15:24;98792.32;;;19.60;100.00
46642;BME280;32370;41.864;-88.124;2022-08-21T12:17:56;98792.88;;;19.72;100.00
46642;BME280;32370;41.864;-88.124;2022-08-21T12:20:37;98794.29;;;19.49;100.00
46642;BME280;32370;41.864;-88.124;2022-08-21T12:23:23;98792.91;;;20.19;100.00
46642;BME280;32370;41.864;-88.124;2022-08-21T12:26:03;98798.60;;;19.84;100.00
46642;BME280;32370;41.864;-88.124;2022-08-21T12:28:37;98805.31;;;19.86;100.00
46642;BME280;32370;41.864;-88.124;2022-08-21T12:31:15;98803.81;;;19.59;100.00
46642;BME280;32370;41.864;-88.124;2022-08-21T12:33:52;98806.06;;;19.84;100.00
46642;BME280;32370;41.864;-88.124;2022-08-21T12:36:24;98809.63;;;19.23;100.00
46642;BME280;32370;41.864;-88.124;2022-08-21T12:38:57;98810.43;;;19.57;100.00
46642;BME280;32370;41.864;-88.124;2022-08-21T12:41:29;98820.99;;;19.79;100.00
46642;BME280;32370;41.864;-88.124;2022-08-21T12:44:03;98820.04;;;19.69;100.00
46642;BME280;32370;41.864;-88.124;2022-08-21T12:46:39;98817.45;;;19.66;100.00
46642;BME280;32370;41.864;-88.124;2022-08-21T12:49:14;98818.57;;;20.20;100.00
46642;BME280;32370;41.864;-88.124;2022-08-21T12:51:56;98817.81;;;20.05;100.00
46642;BME280;32370;41.864;-88.124;2022-08-21T12:54:28;98820.92;;;20.14;100.00